sensor_id;sensor_type;location;lat;lon;timestamp;temperature;humidity
2543;DHT22;1116;51.502;7.414;2023-12-20T00:02:00;9.30;99.90
2543;DHT22;1116;51.502;7.414;2023-12-20T00:04:33;9.30;99.90
2543;DHT22;1116;51.502;7.414;2023-12-20T00:07:04;9.30;99.90
2543;DHT22;1116;51.502;7.414;2023-12-20T00:09:34;9.20;99.90
2543;DHT22;1116;51.502;7.414;2023-12-20T00:12:08;9.20;99.90
2543;DHT22;1116;51.502;7.414;2023-12-20T00:15:01;9.20;99.90
2543;DHT22;1116;51.502;7.414;2023-12-20T00:17:31;9.20;99.90
2543;DHT22;1116;51.502;7.414;2023-12-20T00:20:02;9.20;99.90
2543;DHT22;1116;51.502;7.414;2023-12-20T00:22:39;9.20;99.90
2543;DHT22;1116;51.502;7.414;2023-12-20T00:25:09;9.20;99.90
2543;DHT22;1116;51.502;7.414;2023-12-20T00:27:41;9.40;99.90
2543;DHT22;1116;51.502;7.414;2023-12-20T00:30:12;9.20;99.90
2543;DHT22;1116;51.502;7.414;2023-12-20T00:32:42;9.00;99.90
2543;DHT22;1116;51.502;7.414;2023-12-20T00:35:15;9.00;99.90
2543;DHT22;1116;51.502;7.414;2023-12-20T00:37:45;9.00;99.90
2543;DHT22;1116;51.502;7.414;2023-12-20T00:40:24;8.90;99.90
2543;DHT22;1116;51.502;7.414;2023-12-20T00:42:57;9.00;99.90
2543;DHT22;1116;51.502;7.414;2023-12-20T00:45:27;8.90;99.90
2543;DHT22;1116;51.502;7.414;2023-12-20T00:47:57;8.80;99.90
2543;DHT22;1116;51.502;7.414;2023-12-20T00:50:31;8.80;99.90
2543;DHT22;1116;51.502;7.414;2023-12-20T00:53:01;8.60;99.90
2543;DHT22;1116;51.502;7.414;2023-12-20T00:55:31;8.60;99.90
2543;DHT22;1116;51.502;7.414;2023-12-20T00:58:03;8.20;99.90
2543;DHT22;1116;51.502;7.414;2023-12-20T01:00:34;8.60;99.90
2543;DHT22;1116;51.502;7.414;2023-12-20T01:03:05;8.50;99.90
2543;DHT22;1116;51.502;7.414;2023-12-20T01:05:36;8.50;99.90
2543;DHT22;1116;51.502;7.414;2023-12-20T01:08:13;8.50;99.90
2543;DHT22;1116;51.502;7.414;2023-12-20T01:10:43;8.40;99.90
2543;DHT22;1116;51.502;7.414;2023-12-20T01:13:16;8.40;99.90
2543;DHT22;1116;51.502;7.414;2023-12-20T01:15:46;8.30;99.90
2543;DHT22;1116;51.502;7.414;2023-12-20T01:18:18;8.30;99.90
2543;DHT22;1116;51.502;7.414;2023-12-20T01:20:49;8.30;99.90
2543;DHT22;1116;51.502;7.414;2023-12-20T01:23:20;8.30;99.90
2543;DHT22;1116;51.502;7.414;2023-12-20T01:25:50;8.30;99.90
2543;DHT22;1116;51.502;7.414;2023-12-20T01:28:23;8.30;99.90
2543;DHT22;1116;51.502;7.414;2023-12-20T01:31:01;8.30;99.90
2543;DHT22;1116;51.502;7.414;2023-12-20T01:33:42;8.40;99.90
2543;DHT22;1116;51.502;7.414;2023-12-20T01:36:13;8.40;99.90
2543;DHT22;1116;51.502;7.414;2023-12-20T01:38:42;8.40;99.90
2543;DHT22;1116;51.502;7.414;2023-12-20T01:41:12;8.40;99.90
2543;DHT22;1116;51.502;7.414;2023-12-20T01:43:45;8.40;99.90
2543;DHT22;1116;51.502;7.414;2023-12-20T01:46:19;8.30;99.90
2543;DHT22;1116;51.502;7.414;2023-12-20T01:48:49;8.30;99.90
2543;DHT22;1116;51.502;7.414;2023-12-20T01:51:24;8.30;99.90
2543;DHT22;1116;51.502;7.414;2023-12-20T01:53:55;8.30;99.90
2543;DHT22;1116;51.502;7.414;2023-12-20T01:56:26;8.30;99.90
2543;DHT22;1116;51.502;7.414;2023-12-20T01:59:01;8.30;99.90
2543;DHT22;1116;51.502;7.414;2023-12-20T02:01:32;8.30;99.90
2543;DHT22;1116;51.502;7.414;2023-12-20T02:04:09;8.20;99.90
2543;DHT22;1116;51.502;7.414;2023-12-20T02:06:40;8.20;99.90
2543;DHT22;1116;51.502;7.414;2023-12-20T02:09:10;8.10;99.90
2543;DHT22;1116;51.502;7.414;2023-12-20T02:11:40;8.10;99.90
2543;DHT22;1116;51.502;7.414;2023-12-20T02:14:13;8.10;99.90
2543;DHT22;1116;51.502;7.414;2023-12-20T02:16:43;8.10;99.90
2543;DHT22;1116;51.502;7.414;2023-12-20T02:19:14;8.20;99.90
2543;DHT22;1116;51.502;7.414;2023-12-20T02:22:08;8.30;99.90
2543;DHT22;1116;51.502;7.414;2023-12-20T02:24:39;8.10;99.90
2543;DHT22;1116;51.502;7.414;2023-12-20T02:27:11;8.00;99.90
2543;DHT22;1116;51.502;7.414;2023-12-20T02:29:41;8.30;99.90
2543;DHT22;1116;51.502;7.414;2023-12-20T02:32:11;8.00;99.90
2543;DHT22;1116;51.502;7.414;2023-12-20T02:34:41;8.00;99.90
2543;DHT22;1116;51.502;7.414;2023-12-20T02:37:14;8.00;99.90
2543;DHT22;1116;51.502;7.414;2023-12-20T02:39:48;8.00;99.90
2543;DHT22;1116;51.502;7.414;2023-12-20T02:42:18;7.90;99.90
2543;DHT22;1116;51.502;7.414;2023-12-20T02:44:48;7.80;99.90
2543;DHT22;1116;51.502;7.414;2023-12-20T02:47:18;7.80;99.90
2543;DHT22;1116;51.502;7.414;2023-12-20T02:49:48;7.80;99.90
2543;DHT22;1116;51.502;7.414;2023-12-20T02:52:28;7.80;99.90
2543;DHT22;1116;51.502;7.414;2023-12-20T02:54:58;7.80;99.90
2543;DHT22;1116;51.502;7.414;2023-12-20T02:57:28;7.90;99.90
2543;DHT22;1116;51.502;7.414;2023-12-20T02:59:59;7.90;99.90
2543;DHT22;1116;51.502;7.414;2023-12-20T03:02:28;7.90;99.90
2543;DHT22;1116;51.502;7.414;2023-12-20T03:05:06;7.90;99.90
2543;DHT22;1116;51.502;7.414;2023-12-20T03:07:39;7.80;99.90
2543;DHT22;1116;51.502;7.414;2023-12-20T03:10:09;7.80;99.90
2543;DHT22;1116;51.502;7.414;2023-12-20T03:12:49;7.70;99.90
2543;DHT22;1116;51.502;7.414;2023-12-20T03:15:19;7.70;99.90
2543;DHT22;1116;51.502;7.414;2023-12-20T03:17:49;7.80;99.90
2543;DHT22;1116;51.502;7.414;2023-12-20T03:20:19;7.80;99.90
2543;DHT22;1116;51.502;7.414;2023-12-20T03:23:06;7.80;99.90
2543;DHT22;1116;51.502;7.414;2023-12-20T03:25:39;7.70;99.90
2543;DHT22;1116;51.502;7.414;2023-12-20T03:28:09;7.70;99.90
2543;DHT22;1116;51.502;7.414;2023-12-20T03:30:39;7.70;99.90
2543;DHT22;1116;51.502;7.414;2023-12-20T03:33:12;7.80;99.90
2543;DHT22;1116;51.502;7.414;2023-12-20T03:35:58;7.70;99.90
2543;DHT22;1116;51.502;7.414;2023-12-20T03:38:31;7.60;99.90
2543;DHT22;1116;51.502;7.414;2023-12-20T03:44:27;7.60;99.90
2543;DHT22;1116;51.502;7.414;2023-12-20T03:47:01;7.60;99.90
2543;DHT22;1116;51.502;7.414;2023-12-20T03:49:41;7.60;99.90
2543;DHT22;1116;51.502;7.414;2023-12-20T03:52:14;7.70;99.90
2543;DHT22;1116;51.502;7.414;2023-12-20T03:54:46;7.70;99.90
2543;DHT22;1116;51.502;7.414;2023-12-20T03:57:16;7.70;99.90
2543;DHT22;1116;51.502;7.414;2023-12-20T03:59:46;7.70;99.90
2543;DHT22;1116;51.502;7.414;2023-12-20T04:02:16;7.70;99.90
2543;DHT22;1116;51.502;7.414;2023-12-20T04:04:47;7.70;99.90
2543;DHT22;1116;51.502;7.414;2023-12-20T04:07:19;7.70;99.90
2543;DHT22;1116;51.502;7.414;2023-12-20T04:10:01;7.60;99.90
2543;DHT22;1116;51.502;7.414;2023-12-20T04:12:32;7.70;99.90
2543;DHT22;1116;51.502;7.414;2023-12-20T04:15:03;7.70;99.90
2543;DHT22;1116;51.502;7.414;2023-12-20T04:17:36;7.70;99.90
2543;DHT22;1116;51.502;7.414;2023-12-20T04:20:07;7.60;99.90
2543;DHT22;1116;51.502;7.414;2023-12-20T04:22:44;7.60;99.90
2543;DHT22;1116;51.502;7.414;2023-12-20T04:25:16;7.60;99.90
2543;DHT22;1116;51.502;7.414;2023-12-20T04:27:54;7.70;99.90
2543;DHT22;1116;51.502;7.414;2023-12-20T04:30:24;7.60;99.90
2543;DHT22;1116;51.502;7.414;2023-12-20T04:32:54;7.60;99.90
2543;DHT22;1116;51.502;7.414;2023-12-20T04:35:31;7.60;99.90
2543;DHT22;1116;51.502;7.414;2023-12-20T04:38:06;7.50;99.90
2543;DHT22;1116;51.502;7.414;2023-12-20T04:40:39;7.50;99.90
2543;DHT22;1116;51.502;7.414;2023-12-20T04:43:09;7.50;99.90
2543;DHT22;1116;51.502;7.414;2023-12-20T04:45:39;7.50;99.90
2543;DHT22;1116;51.502;7.414;2023-12-20T04:48:09;7.50;99.90
2543;DHT22;1116;51.502;7.414;2023-12-20T04:50:39;8.10;99.90
2543;DHT22;1116;51.502;7.414;2023-12-20T04:53:12;7.50;99.90
2543;DHT22;1116;51.502;7.414;2023-12-20T04:55:45;7.50;99.90
2543;DHT22;1116;51.502;7.414;2023-12-20T04:58:15;7.50;99.90
2543;DHT22;1116;51.502;7.414;2023-12-20T05:00:45;7.40;99.90
2543;DHT22;1116;51.502;7.414;2023-12-20T05:03:15;7.40;99.90
2543;DHT22;1116;51.502;7.414;2023-12-20T05:05:44;7.40;99.90
2543;DHT22;1116;51.502;7.414;2023-12-20T05:08:19;7.50;99.90
2543;DHT22;1116;51.502;7.414;2023-12-20T05:10:54;7.50;99.90
2543;DHT22;1116;51.502;7.414;2023-12-20T05:13:24;7.40;99.90
2543;DHT22;1116;51.502;7.414;2023-12-20T05:16:08;7.40;99.90
2543;DHT22;1116;51.502;7.414;2023-12-20T05:18:41;7.50;99.90
2543;DHT22;1116;51.502;7.414;2023-12-20T05:21:14;7.50;99.90
2543;DHT22;1116;51.502;7.414;2023-12-20T05:23:43;7.50;99.90
2543;DHT22;1116;51.502;7.414;2023-12-20T05:26:19;7.50;99.90
2543;DHT22;1116;51.502;7.414;2023-12-20T05:28:49;7.50;99.90
2543;DHT22;1116;51.502;7.414;2023-12-20T05:31:19;7.50;99.90
2543;DHT22;1116;51.502;7.414;2023-12-20T05:33:49;7.50;99.90
2543;DHT22;1116;51.502;7.414;2023-12-20T05:36:19;7.50;99.90
2543;DHT22;1116;51.502;7.414;2023-12-20T05:38:49;7.40;99.90
2543;DHT22;1116;51.502;7.414;2023-12-20T05:41:21;7.40;99.90
2543;DHT22;1116;51.502;7.414;2023-12-20T05:43:51;7.40;99.90
2543;DHT22;1116;51.502;7.414;2023-12-20T05:46:25;7.30;99.90
2543;DHT22;1116;51.502;7.414;2023-12-20T05:48:56;7.30;99.90
2543;DHT22;1116;51.502;7.414;2023-12-20T05:51:26;7.20;99.90
2543;DHT22;1116;51.502;7.414;2023-12-20T05:53:56;7.20;99.90
2543;DHT22;1116;51.502;7.414;2023-12-20T05:56:32;7.20;99.90
2543;DHT22;1116;51.502;7.414;2023-12-20T05:59:05;7.20;99.90
2543;DHT22;1116;51.502;7.414;2023-12-20T06:01:36;7.20;99.90
2543;DHT22;1116;51.502;7.414;2023-12-20T06:04:06;7.20;99.90
2543;DHT22;1116;51.502;7.414;2023-12-20T06:06:40;7.30;99.90
2543;DHT22;1116;51.502;7.414;2023-12-20T06:09:14;8.20;99.90
2543;DHT22;1116;51.502;7.414;2023-12-20T06:11:51;7.10;99.90
2543;DHT22;1116;51.502;7.414;2023-12-20T06:14:21;7.30;99.90
2543;DHT22;1116;51.502;7.414;2023-12-20T06:16:51;7.30;99.90
2543;DHT22;1116;51.502;7.414;2023-12-20T06:19:21;7.30;99.90
2543;DHT22;1116;51.502;7.414;2023-12-20T06:21:51;7.30;99.90
2543;DHT22;1116;51.502;7.414;2023-12-20T06:24:24;7.30;99.90
2543;DHT22;1116;51.502;7.414;2023-12-20T06:26:57;7.30;99.90
2543;DHT22;1116;51.502;7.414;2023-12-20T06:29:28;7.30;99.90
2543;DHT22;1116;51.502;7.414;2023-12-20T06:31:58;7.30;99.90
2543;DHT22;1116;51.502;7.414;2023-12-20T06:34:28;7.30;99.90
2543;DHT22;1116;51.502;7.414;2023-12-20T06:36:58;7.30;99.90
2543;DHT22;1116;51.502;7.414;2023-12-20T06:39:35;7.20;99.90
2543;DHT22;1116;51.502;7.414;2023-12-20T06:42:08;7.30;99.90
2543;DHT22;1116;51.502;7.414;2023-12-20T06:44:38;7.30;99.90
2543;DHT22;1116;51.502;7.414;2023-12-20T06:47:10;7.90;99.90
2543;DHT22;1116;51.502;7.414;2023-12-20T06:49:41;7.40;99.90
2543;DHT22;1116;51.502;7.414;2023-12-20T06:52:20;7.40;99.90
2543;DHT22;1116;51.502;7.414;2023-12-20T06:54:56;7.50;99.90
2543;DHT22;1116;51.502;7.414;2023-12-20T06:57:29;7.50;99.90
2543;DHT22;1116;51.502;7.414;2023-12-20T06:59:59;7.50;99.90
2543;DHT22;1116;51.502;7.414;2023-12-20T07:02:29;7.40;99.90
2543;DHT22;1116;51.502;7.414;2023-12-20T07:04:59;7.30;99.90
2543;DHT22;1116;51.502;7.414;2023-12-20T07:07:35;7.30;99.90
2543;DHT22;1116;51.502;7.414;2023-12-20T07:10:06;7.30;99.90
2543;DHT22;1116;51.502;7.414;2023-12-20T07:12:38;7.20;99.90
2543;DHT22;1116;51.502;7.414;2023-12-20T07:15:09;7.30;99.90
2543;DHT22;1116;51.502;7.414;2023-12-20T07:17:43;7.20;99.90
2543;DHT22;1116;51.502;7.414;2023-12-20T07:20:13;7.20;99.90
2543;DHT22;1116;51.502;7.414;2023-12-20T07:22:43;7.20;99.90
2543;DHT22;1116;51.502;7.414;2023-12-20T07:25:13;7.20;99.90
2543;DHT22;1116;51.502;7.414;2023-12-20T07:27:59;7.20;99.90
2543;DHT22;1116;51.502;7.414;2023-12-20T07:30:35;7.20;99.90
2543;DHT22;1116;51.502;7.414;2023-12-20T07:33:05;7.20;99.90
2543;DHT22;1116;51.502;7.414;2023-12-20T07:35:36;7.20;99.90
2543;DHT22;1116;51.502;7.414;2023-12-20T07:38:06;7.30;99.90
2543;DHT22;1116;51.502;7.414;2023-12-20T07:40:36;7.30;99.90
2543;DHT22;1116;51.502;7.414;2023-12-20T07:43:14;7.30;99.90
2543;DHT22;1116;51.502;7.414;2023-12-20T07:45:44;7.20;99.90
2543;DHT22;1116;51.502;7.414;2023-12-20T07:48:14;7.30;99.90
2543;DHT22;1116;51.502;7.414;2023-12-20T07:50:44;7.30;99.90
2543;DHT22;1116;51.502;7.414;2023-12-20T07:53:14;7.30;99.90
2543;DHT22;1116;51.502;7.414;2023-12-20T07:55:44;7.20;99.90
2543;DHT22;1116;51.502;7.414;2023-12-20T07:58:29;7.30;99.90
2543;DHT22;1116;51.502;7.414;2023-12-20T08:01:17;7.30;99.90
2543;DHT22;1116;51.502;7.414;2023-12-20T08:03:49;7.30;99.90
2543;DHT22;1116;51.502;7.414;2023-12-20T08:06:23;7.30;99.90
2543;DHT22;1116;51.502;7.414;2023-12-20T08:08:52;7.30;99.90
2543;DHT22;1116;51.502;7.414;2023-12-20T08:11:32;7.30;99.90
2543;DHT22;1116;51.502;7.414;2023-12-20T08:14:11;7.70;99.90
2543;DHT22;1116;51.502;7.414;2023-12-20T08:16:43;7.30;99.90
2543;DHT22;1116;51.502;7.414;2023-12-20T08:19:13;7.40;99.90
2543;DHT22;1116;51.502;7.414;2023-12-20T08:21:44;7.40;99.90
2543;DHT22;1116;51.502;7.414;2023-12-20T08:24:14;7.30;99.90
2543;DHT22;1116;51.502;7.414;2023-12-20T08:26:44;7.30;99.90
2543;DHT22;1116;51.502;7.414;2023-12-20T08:29:21;7.40;99.90
2543;DHT22;1116;51.502;7.414;2023-12-20T08:31:52;7.50;99.90
2543;DHT22;1116;51.502;7.414;2023-12-20T08:34:25;8.20;99.90
2543;DHT22;1116;51.502;7.414;2023-12-20T08:36:55;7.50;99.90
2543;DHT22;1116;51.502;7.414;2023-12-20T08:39:25;7.50;99.90
2543;DHT22;1116;51.502;7.414;2023-12-20T08:42:00;7.50;99.90
2543;DHT22;1116;51.502;7.414;2023-12-20T08:44:33;7.50;99.90
2543;DHT22;1116;51.502;7.414;2023-12-20T08:47:03;7.50;99.90
2543;DHT22;1116;51.502;7.414;2023-12-20T08:49:34;7.40;99.90
2543;DHT22;1116;51.502;7.414;2023-12-20T08:52:05;7.50;99.90
2543;DHT22;1116;51.502;7.414;2023-12-20T08:54:35;7.50;99.90
2543;DHT22;1116;51.502;7.414;2023-12-20T08:57:08;7.60;99.90
2543;DHT22;1116;51.502;7.414;2023-12-20T08:59:40;7.60;99.90
2543;DHT22;1116;51.502;7.414;2023-12-20T09:02:10;7.60;99.90
2543;DHT22;1116;51.502;7.414;2023-12-20T09:04:43;7.50;99.90
2543;DHT22;1116;51.502;7.414;2023-12-20T09:07:34;7.60;99.90
2543;DHT22;1116;51.502;7.414;2023-12-20T09:10:05;7.60;99.90
2543;DHT22;1116;51.502;7.414;2023-12-20T09:12:35;7.60;99.90
2543;DHT22;1116;51.502;7.414;2023-12-20T09:15:10;8.10;99.90
2543;DHT22;1116;51.502;7.414;2023-12-20T09:17:40;7.70;99.90
2543;DHT22;1116;51.502;7.414;2023-12-20T09:20:20;7.70;99.90
2543;DHT22;1116;51.502;7.414;2023-12-20T09:22:50;7.70;99.90
2543;DHT22;1116;51.502;7.414;2023-12-20T09:25:20;7.70;99.90
2543;DHT22;1116;51.502;7.414;2023-12-20T09:27:50;7.70;99.90
2543;DHT22;1116;51.502;7.414;2023-12-20T09:30:23;8.10;99.90
2543;DHT22;1116;51.502;7.414;2023-12-20T09:32:54;7.70;99.90
2543;DHT22;1116;51.502;7.414;2023-12-20T09:35:26;7.70;99.90
2543;DHT22;1116;51.502;7.414;2023-12-20T09:38:03;7.70;99.90
2543;DHT22;1116;51.502;7.414;2023-12-20T09:40:33;7.70;99.90
2543;DHT22;1116;51.502;7.414;2023-12-20T09:43:05;7.70;99.90
2543;DHT22;1116;51.502;7.414;2023-12-20T09:45:40;7.70;99.90
2543;DHT22;1116;51.502;7.414;2023-12-20T09:48:20;7.60;99.90
2543;DHT22;1116;51.502;7.414;2023-12-20T09:50:50;7.70;99.90
2543;DHT22;1116;51.502;7.414;2023-12-20T09:53:21;7.70;99.90
2543;DHT22;1116;51.502;7.414;2023-12-20T09:55:58;7.70;99.90
2543;DHT22;1116;51.502;7.414;2023-12-20T09:58:39;7.70;99.90
2543;DHT22;1116;51.502;7.414;2023-12-20T10:01:11;8.10;99.90
2543;DHT22;1116;51.502;7.414;2023-12-20T10:03:42;7.70;99.90
2543;DHT22;1116;51.502;7.414;2023-12-20T10:06:12;7.80;99.90
2543;DHT22;1116;51.502;7.414;2023-12-20T10:08:45;7.90;99.90
2543;DHT22;1116;51.502;7.414;2023-12-20T10:11:15;7.90;99.90
2543;DHT22;1116;51.502;7.414;2023-12-20T10:13:47;7.90;99.90
2543;DHT22;1116;51.502;7.414;2023-12-20T10:16:24;7.80;99.90
2543;DHT22;1116;51.502;7.414;2023-12-20T10:18:58;7.90;99.90
2543;DHT22;1116;51.502;7.414;2023-12-20T10:21:28;7.90;99.90
2543;DHT22;1116;51.502;7.414;2023-12-20T10:23:58;7.80;99.90
2543;DHT22;1116;51.502;7.414;2023-12-20T10:26:28;7.70;99.90
2543;DHT22;1116;51.502;7.414;2023-12-20T10:29:00;7.90;99.90
2543;DHT22;1116;51.502;7.414;2023-12-20T10:31:34;7.90;99.90
2543;DHT22;1116;51.502;7.414;2023-12-20T10:34:07;7.90;99.90
2543;DHT22;1116;51.502;7.414;2023-12-20T10:36:41;8.00;99.90
2543;DHT22;1116;51.502;7.414;2023-12-20T10:39:11;8.40;99.90
2543;DHT22;1116;51.502;7.414;2023-12-20T10:41:43;7.90;99.90
2543;DHT22;1116;51.502;7.414;2023-12-20T10:44:13;7.90;99.90
2543;DHT22;1116;51.502;7.414;2023-12-20T10:46:46;8.00;99.90
2543;DHT22;1116;51.502;7.414;2023-12-20T10:49:21;8.10;99.90
2543;DHT22;1116;51.502;7.414;2023-12-20T10:51:53;8.00;99.90
2543;DHT22;1116;51.502;7.414;2023-12-20T10:54:24;8.10;99.90
2543;DHT22;1116;51.502;7.414;2023-12-20T10:56:54;8.00;99.90
2543;DHT22;1116;51.502;7.414;2023-12-20T10:59:28;8.00;99.90
2543;DHT22;1116;51.502;7.414;2023-12-20T11:02:02;8.10;99.90
2543;DHT22;1116;51.502;7.414;2023-12-20T11:04:47;8.10;99.90
2543;DHT22;1116;51.502;7.414;2023-12-20T11:07:25;8.10;99.90
2543;DHT22;1116;51.502;7.414;2023-12-20T11:09:58;8.10;99.90
2543;DHT22;1116;51.502;7.414;2023-12-20T11:12:38;8.00;99.90
2543;DHT22;1116;51.502;7.414;2023-12-20T11:15:09;8.10;99.90
2543;DHT22;1116;51.502;7.414;2023-12-20T11:17:44;8.00;99.90
2543;DHT22;1116;51.502;7.414;2023-12-20T11:20:20;8.60;99.90
2543;DHT22;1116;51.502;7.414;2023-12-20T11:23:02;8.00;99.90
2543;DHT22;1116;51.502;7.414;2023-12-20T11:25:51;7.50;99.90
2543;DHT22;1116;51.502;7.414;2023-12-20T11:28:24;8.00;99.90
2543;DHT22;1116;51.502;7.414;2023-12-20T11:31:00;8.10;99.90
2543;DHT22;1116;51.502;7.414;2023-12-20T11:33:36;8.20;99.90
2543;DHT22;1116;51.502;7.414;2023-12-20T11:36:13;8.20;99.90
2543;DHT22;1116;51.502;7.414;2023-12-20T11:38:54;8.10;99.90
2543;DHT22;1116;51.502;7.414;2023-12-20T11:41:26;8.20;99.90
2543;DHT22;1116;51.502;7.414;2023-12-20T11:43:57;8.30;99.90
2543;DHT22;1116;51.502;7.414;2023-12-20T11:46:28;8.20;99.90
2543;DHT22;1116;51.502;7.414;2023-12-20T11:49:08;8.60;99.90
2543;DHT22;1116;51.502;7.414;2023-12-20T11:51:41;8.30;99.90
2543;DHT22;1116;51.502;7.414;2023-12-20T11:54:10;8.30;99.90
2543;DHT22;1116;51.502;7.414;2023-12-20T11:56:41;8.30;99.90
2543;DHT22;1116;51.502;7.414;2023-12-20T11:59:14;8.30;99.90
2543;DHT22;1116;51.502;7.414;2023-12-20T12:01:53;8.30;99.90
2543;DHT22;1116;51.502;7.414;2023-12-20T12:04:30;8.40;99.90
2543;DHT22;1116;51.502;7.414;2023-12-20T12:07:00;8.30;99.90
2543;DHT22;1116;51.502;7.414;2023-12-20T12:09:30;8.30;99.90
2543;DHT22;1116;51.502;7.414;2023-12-20T12:12:00;8.20;99.90
2543;DHT22;1116;51.502;7.414;2023-12-20T12:14:38;8.20;99.90
2543;DHT22;1116;51.502;7.414;2023-12-20T12:17:10;8.20;99.90
2543;DHT22;1116;51.502;7.414;2023-12-20T12:19:46;8.30;99.90
2543;DHT22;1116;51.502;7.414;2023-12-20T12:22:17;8.30;99.90
2543;DHT22;1116;51.502;7.414;2023-12-20T12:24:53;8.50;99.90
2543;DHT22;1116;51.502;7.414;2023-12-20T12:27:23;8.30;99.90
2543;DHT22;1116;51.502;7.414;2023-12-20T12:30:00;8.20;99.90
2543;DHT22;1116;51.502;7.414;2023-12-20T12:32:31;8.30;99.90
2543;DHT22;1116;51.502;7.414;2023-12-20T12:35:06;8.30;99.90
2543;DHT22;1116;51.502;7.414;2023-12-20T12:37:40;8.10;99.90
2543;DHT22;1116;51.502;7.414;2023-12-20T12:40:12;8.10;99.90
2543;DHT22;1116;51.502;7.414;2023-12-20T12:42:44;8.10;99.90
2543;DHT22;1116;51.502;7.414;2023-12-20T12:45:14;8.20;99.90
2543;DHT22;1116;51.502;7.414;2023-12-20T12:47:45;8.10;99.90
2543;DHT22;1116;51.502;7.414;2023-12-20T12:50:18;8.10;99.90
2543;DHT22;1116;51.502;7.414;2023-12-20T12:52:57;8.00;99.90
2543;DHT22;1116;51.502;7.414;2023-12-20T12:55:27;8.00;99.90
2543;DHT22;1116;51.502;7.414;2023-12-20T12:58:00;8.10;99.90
2543;DHT22;1116;51.502;7.414;2023-12-20T13:00:30;8.00;99.90
2543;DHT22;1116;51.502;7.414;2023-12-20T13:03:00;8.00;99.90
2543;DHT22;1116;51.502;7.414;2023-12-20T13:05:33;8.10;99.90
2543;DHT22;1116;51.502;7.414;2023-12-20T13:08:09;8.10;99.90
2543;DHT22;1116;51.502;7.414;2023-12-20T13:10:40;8.10;99.90
2543;DHT22;1116;51.502;7.414;2023-12-20T13:13:10;8.10;99.90
2543;DHT22;1116;51.502;7.414;2023-12-20T13:15:40;8.20;99.90
2543;DHT22;1116;51.502;7.414;2023-12-20T13:18:15;8.20;99.90
2543;DHT22;1116;51.502;7.414;2023-12-20T13:20:48;8.30;99.90
2543;DHT22;1116;51.502;7.414;2023-12-20T13:23:21;8.30;99.90
2543;DHT22;1116;51.502;7.414;2023-12-20T13:25:51;8.30;99.90
2543;DHT22;1116;51.502;7.414;2023-12-20T13:28:21;8.30;99.90
2543;DHT22;1116;51.502;7.414;2023-12-20T13:30:51;8.30;99.90
2543;DHT22;1116;51.502;7.414;2023-12-20T13:33:21;8.30;99.90
2543;DHT22;1116;51.502;7.414;2023-12-20T13:35:53;8.30;99.90
2543;DHT22;1116;51.502;7.414;2023-12-20T13:38:25;8.40;99.90
2543;DHT22;1116;51.502;7.414;2023-12-20T13:40:55;8.30;99.90
2543;DHT22;1116;51.502;7.414;2023-12-20T13:43:27;8.30;99.90
2543;DHT22;1116;51.502;7.414;2023-12-20T13:45:57;8.40;99.90
2543;DHT22;1116;51.502;7.414;2023-12-20T13:48:26;8.60;99.90
2543;DHT22;1116;51.502;7.414;2023-12-20T13:50:59;8.30;99.90
2543;DHT22;1116;51.502;7.414;2023-12-20T13:53:35;8.30;99.90
2543;DHT22;1116;51.502;7.414;2023-12-20T13:56:07;8.20;99.90
2543;DHT22;1116;51.502;7.414;2023-12-20T13:58:41;8.20;99.90
2543;DHT22;1116;51.502;7.414;2023-12-20T14:01:13;8.30;99.90
2543;DHT22;1116;51.502;7.414;2023-12-20T14:03:43;8.20;99.90
2543;DHT22;1116;51.502;7.414;2023-12-20T14:06:24;8.20;99.90
2543;DHT22;1116;51.502;7.414;2023-12-20T14:08:54;8.10;99.90
2543;DHT22;1116;51.502;7.414;2023-12-20T14:11:24;8.10;99.90
2543;DHT22;1116;51.502;7.414;2023-12-20T14:13:54;8.10;99.90
2543;DHT22;1116;51.502;7.414;2023-12-20T14:16:26;8.10;99.90
2543;DHT22;1116;51.502;7.414;2023-12-20T14:19:03;8.10;99.90
2543;DHT22;1116;51.502;7.414;2023-12-20T14:21:40;8.10;99.90
2543;DHT22;1116;51.502;7.414;2023-12-20T14:24:22;7.80;99.90
2543;DHT22;1116;51.502;7.414;2023-12-20T14:26:55;8.40;99.90
2543;DHT22;1116;51.502;7.414;2023-12-20T14:29:25;7.80;99.90
2543;DHT22;1116;51.502;7.414;2023-12-20T14:31:55;8.10;99.90
2543;DHT22;1116;51.502;7.414;2023-12-20T14:34:25;8.10;99.90
2543;DHT22;1116;51.502;7.414;2023-12-20T14:36:58;8.10;99.90
2543;DHT22;1116;51.502;7.414;2023-12-20T14:39:28;8.10;99.90
2543;DHT22;1116;51.502;7.414;2023-12-20T14:41:58;8.10;99.90
2543;DHT22;1116;51.502;7.414;2023-12-20T14:44:28;8.20;99.90
2543;DHT22;1116;51.502;7.414;2023-12-20T14:46:58;8.50;99.90
2543;DHT22;1116;51.502;7.414;2023-12-20T14:49:29;8.20;99.90
2543;DHT22;1116;51.502;7.414;2023-12-20T14:52:02;8.10;99.90
2543;DHT22;1116;51.502;7.414;2023-12-20T14:54:35;8.10;99.90
2543;DHT22;1116;51.502;7.414;2023-12-20T14:57:05;8.10;99.90
2543;DHT22;1116;51.502;7.414;2023-12-20T14:59:35;8.10;99.90
2543;DHT22;1116;51.502;7.414;2023-12-20T15:02:05;8.10;99.90
2543;DHT22;1116;51.502;7.414;2023-12-20T15:04:35;8.10;99.90
2543;DHT22;1116;51.502;7.414;2023-12-20T15:07:11;8.10;99.90
2543;DHT22;1116;51.502;7.414;2023-12-20T15:09:41;8.20;99.90
2543;DHT22;1116;51.502;7.414;2023-12-20T15:12:13;8.10;99.90
2543;DHT22;1116;51.502;7.414;2023-12-20T15:14:43;8.30;99.90
2543;DHT22;1116;51.502;7.414;2023-12-20T15:17:13;8.20;99.90
2543;DHT22;1116;51.502;7.414;2023-12-20T15:19:43;8.50;99.90
2543;DHT22;1116;51.502;7.414;2023-12-20T15:22:16;8.20;99.90
2543;DHT22;1116;51.502;7.414;2023-12-20T15:24:46;8.20;99.90
2543;DHT22;1116;51.502;7.414;2023-12-20T15:27:18;8.10;99.90
2543;DHT22;1116;51.502;7.414;2023-12-20T15:29:51;8.10;99.90
2543;DHT22;1116;51.502;7.414;2023-12-20T15:32:22;8.20;99.90
2543;DHT22;1116;51.502;7.414;2023-12-20T15:34:53;8.20;99.90
2543;DHT22;1116;51.502;7.414;2023-12-20T15:37:25;7.70;99.90
2543;DHT22;1116;51.502;7.414;2023-12-20T15:39:56;8.20;99.90
2543;DHT22;1116;51.502;7.414;2023-12-20T15:42:32;8.30;99.90
2543;DHT22;1116;51.502;7.414;2023-12-20T15:45:04;8.70;99.90
2543;DHT22;1116;51.502;7.414;2023-12-20T15:47:34;8.20;99.90
2543;DHT22;1116;51.502;7.414;2023-12-20T15:50:07;8.30;99.90
2543;DHT22;1116;51.502;7.414;2023-12-20T15:52:40;8.20;99.90
2543;DHT22;1116;51.502;7.414;2023-12-20T15:55:11;8.20;99.90
2543;DHT22;1116;51.502;7.414;2023-12-20T15:57:41;8.10;99.90
2543;DHT22;1116;51.502;7.414;2023-12-20T16:00:21;8.20;99.90
2543;DHT22;1116;51.502;7.414;2023-12-20T16:02:51;8.20;99.90
2543;DHT22;1116;51.502;7.414;2023-12-20T16:05:21;8.20;99.90
2543;DHT22;1116;51.502;7.414;2023-12-20T16:07:53;8.20;99.90
2543;DHT22;1116;51.502;7.414;2023-12-20T16:10:24;8.30;99.90
2543;DHT22;1116;51.502;7.414;2023-12-20T16:12:54;8.30;99.90
2543;DHT22;1116;51.502;7.414;2023-12-20T16:15:26;8.40;99.90
2543;DHT22;1116;51.502;7.414;2023-12-20T16:17:56;8.30;99.90
2543;DHT22;1116;51.502;7.414;2023-12-20T16:20:26;8.30;99.90
2543;DHT22;1116;51.502;7.414;2023-12-20T16:22:58;8.30;99.90
2543;DHT22;1116;51.502;7.414;2023-12-20T16:25:28;8.30;99.90
2543;DHT22;1116;51.502;7.414;2023-12-20T16:27:59;8.30;99.90
2543;DHT22;1116;51.502;7.414;2023-12-20T16:30:29;8.30;99.90
2543;DHT22;1116;51.502;7.414;2023-12-20T16:32:59;8.30;99.90
2543;DHT22;1116;51.502;7.414;2023-12-20T16:35:29;8.40;99.90
2543;DHT22;1116;51.502;7.414;2023-12-20T16:38:01;8.30;99.90
2543;DHT22;1116;51.502;7.414;2023-12-20T16:40:31;8.30;99.90
2543;DHT22;1116;51.502;7.414;2023-12-20T16:43:01;8.40;99.90
2543;DHT22;1116;51.502;7.414;2023-12-20T16:45:31;8.40;99.90
2543;DHT22;1116;51.502;7.414;2023-12-20T16:48:02;8.40;99.90
2543;DHT22;1116;51.502;7.414;2023-12-20T16:50:32;8.40;99.90
2543;DHT22;1116;51.502;7.414;2023-12-20T16:53:04;8.50;99.90
2543;DHT22;1116;51.502;7.414;2023-12-20T16:55:34;8.50;99.90